createdAt,value
2023-03-26T00:01:13.449Z,11.25
2023-03-26T00:03:40.442Z,11.24
2023-03-26T00:06:10.455Z,11.23
2023-03-26T00:08:38.942Z,11.16
2023-03-26T00:11:07.733Z,11.14
2023-03-26T00:13:34.664Z,11.11
2023-03-26T00:16:01.799Z,11.09
2023-03-26T00:18:28.292Z,11.11
2023-03-26T00:20:54.768Z,11.06
2023-03-26T00:23:21.255Z,11.04
2023-03-26T00:25:49.456Z,11.03
2023-03-26T00:28:16.358Z,11.02
2023-03-26T00:30:43.298Z,11.06
2023-03-26T00:33:09.816Z,11.05
2023-03-26T00:35:37.075Z,10.99
2023-03-26T00:38:03.468Z,10.95
2023-03-26T00:40:29.848Z,10.92
2023-03-26T00:42:56.310Z,10.88
2023-03-26T00:45:22.771Z,10.83
2023-03-26T00:47:49.259Z,10.75
2023-03-26T00:50:15.805Z,10.71
2023-03-26T00:52:43.984Z,10.66
2023-03-26T00:55:10.639Z,10.56
2023-03-26T00:57:37.161Z,10.48
2023-03-26T01:00:13.441Z,10.36
2023-03-26T01:02:40.024Z,10.24
2023-03-26T01:05:34.336Z,10.15
2023-03-26T01:08:26.711Z,10.09
2023-03-26T01:10:55.587Z,9.99
2023-03-26T01:13:24.190Z,9.94
2023-03-26T01:15:51.521Z,9.88
2023-03-26T01:18:22.493Z,9.88
2023-03-26T01:20:50.841Z,9.88
2023-03-26T01:23:24.644Z,9.84
2023-03-26T01:26:04.172Z,9.84
2023-03-26T01:28:33.996Z,9.84
2023-03-26T01:31:21.306Z,9.78
2023-03-26T01:34:02.057Z,9.75
2023-03-26T01:36:39.663Z,9.73
2023-03-26T01:39:29.103Z,9.70
2023-03-26T01:42:02.652Z,9.66
2023-03-26T01:44:50.396Z,9.61
2023-03-26T01:47:18.380Z,9.57
2023-03-26T01:49:44.866Z,9.54
2023-03-26T01:52:21.592Z,9.53
2023-03-26T01:54:48.668Z,9.49
2023-03-26T01:57:23.919Z,9.44
2023-03-26T02:00:17.676Z,9.39
2023-03-26T02:02:56.197Z,9.37
2023-03-26T02:05:29.050Z,9.30
2023-03-26T02:08:19.832Z,9.25
2023-03-26T02:10:51.136Z,9.14
2023-03-26T02:13:17.756Z,9.10
2023-03-26T02:16:17.174Z,9.06
2023-03-26T02:18:45.236Z,9.02
2023-03-26T02:21:15.821Z,8.97
2023-03-26T02:23:44.378Z,9.08
2023-03-26T02:26:11.385Z,9.15
2023-03-26T02:28:38.283Z,9.18
2023-03-26T02:31:05.325Z,9.20
2023-03-26T02:33:32.714Z,9.16
2023-03-26T02:35:59.650Z,9.16
2023-03-26T02:38:26.517Z,9.17
2023-03-26T02:40:54.115Z,9.15
2023-03-26T02:43:20.572Z,9.11
2023-03-26T02:45:47.131Z,9.06
2023-03-26T02:48:13.971Z,8.99
2023-03-26T02:50:41.071Z,8.96
2023-03-26T02:53:07.832Z,8.89
2023-03-26T02:55:34.321Z,8.85
2023-03-26T02:58:00.781Z,8.84
2023-03-26T03:00:27.287Z,8.84
2023-03-26T03:02:53.791Z,8.94
2023-03-26T03:05:20.340Z,9.08
2023-03-26T03:07:46.859Z,9.06
2023-03-26T03:10:14.309Z,9.02
2023-03-26T03:12:41.985Z,8.93
2023-03-26T03:15:09.292Z,8.86
2023-03-26T03:17:35.682Z,8.85
2023-03-26T03:20:02.120Z,8.75
2023-03-26T03:22:28.893Z,8.69
2023-03-26T03:24:55.356Z,8.61
2023-03-26T03:27:21.802Z,8.54
2023-03-26T03:29:48.276Z,8.49
2023-03-26T03:32:14.748Z,8.44
2023-03-26T03:34:41.195Z,8.39
2023-03-26T03:37:07.682Z,8.34
2023-03-26T03:39:34.164Z,8.24
2023-03-26T03:42:00.675Z,8.14
2023-03-26T03:44:27.141Z,8.08
2023-03-26T03:46:53.648Z,8.06
2023-03-26T03:49:20.149Z,7.96
2023-03-26T03:51:46.646Z,7.92
2023-03-26T03:54:13.188Z,7.89
2023-03-26T03:56:39.772Z,7.83
2023-03-26T03:59:06.327Z,7.81
2023-03-26T04:01:32.790Z,7.79
2023-03-26T04:03:59.396Z,7.78
2023-03-26T04:06:26.091Z,7.70
2023-03-26T04:08:52.607Z,7.67
2023-03-26T04:11:19.122Z,7.69
2023-03-26T04:13:45.627Z,7.74
2023-03-26T04:16:12.145Z,7.73
2023-03-26T04:18:38.602Z,7.72
2023-03-26T04:21:05.838Z,7.70
2023-03-26T04:23:32.328Z,7.74
2023-03-26T04:26:02.510Z,7.76
2023-03-26T04:28:32.513Z,7.74
2023-03-26T04:31:01.142Z,7.73
2023-03-26T04:33:30.146Z,7.72
2023-03-26T04:35:57.324Z,7.74
2023-03-26T04:38:23.956Z,7.67
2023-03-26T04:40:50.416Z,7.60
2023-03-26T04:43:17.194Z,7.55
2023-03-26T04:45:44.444Z,7.53
2023-03-26T04:48:11.120Z,7.49
2023-03-26T04:50:37.619Z,7.50
2023-03-26T04:53:04.069Z,7.51
2023-03-26T04:55:41.690Z,7.53
2023-03-26T04:58:08.185Z,7.55
2023-03-26T05:00:34.874Z,7.56
2023-03-26T05:03:01.381Z,7.61
2023-03-26T05:05:29.053Z,7.70
2023-03-26T05:07:55.507Z,7.73
2023-03-26T05:10:22.172Z,7.80
2023-03-26T05:12:48.871Z,7.87
2023-03-26T05:15:15.967Z,7.88
2023-03-26T05:17:42.888Z,7.90
2023-03-26T05:20:19.415Z,7.99
2023-03-26T05:22:46.170Z,8.04
2023-03-26T05:25:13.663Z,8.08
2023-03-26T05:27:40.369Z,8.15
2023-03-26T05:30:08.142Z,8.66
2023-03-26T05:32:34.697Z,9.98
2023-03-26T05:35:02.066Z,11.60
2023-03-26T05:37:29.372Z,13.27
2023-03-26T05:39:55.701Z,14.55
2023-03-26T05:42:22.193Z,15.29
2023-03-26T05:44:49.053Z,16.03
2023-03-26T05:47:15.582Z,16.83
2023-03-26T05:49:42.115Z,17.21
2023-03-26T05:52:08.607Z,17.39
2023-03-26T05:54:35.120Z,18.07
2023-03-26T05:57:01.677Z,18.32
2023-03-26T05:59:28.469Z,18.33
2023-03-26T06:01:54.964Z,18.50
2023-03-26T06:04:21.564Z,18.81
2023-03-26T06:06:48.213Z,19.36
2023-03-26T06:09:14.692Z,19.19
2023-03-26T06:11:41.229Z,19.47
2023-03-26T06:14:07.739Z,19.72
2023-03-26T06:16:34.365Z,19.81
2023-03-26T06:19:00.880Z,19.64
2023-03-26T06:21:28.230Z,19.29
2023-03-26T06:23:55.460Z,18.97
2023-03-26T06:26:21.970Z,18.73
2023-03-26T06:28:48.772Z,18.79
2023-03-26T06:31:15.150Z,18.89
2023-03-26T06:33:41.607Z,18.60
2023-03-26T06:36:08.545Z,18.96
2023-03-26T06:38:35.164Z,18.21
2023-03-26T06:41:03.531Z,18.33
2023-03-26T06:43:30.062Z,18.54
2023-03-26T06:45:56.534Z,18.84
2023-03-26T06:48:22.989Z,18.55
2023-03-26T06:50:49.476Z,19.16
2023-03-26T06:53:15.962Z,19.44
2023-03-26T06:55:42.428Z,19.00
2023-03-26T06:58:11.859Z,19.01
2023-03-26T07:00:38.806Z,19.07
2023-03-26T07:03:06.228Z,18.79
2023-03-26T07:05:32.791Z,18.97
2023-03-26T07:07:59.265Z,18.77
2023-03-26T07:10:25.789Z,18.79
2023-03-26T07:12:53.152Z,18.57
2023-03-26T07:15:19.595Z,18.33
2023-03-26T07:17:46.116Z,18.43
2023-03-26T07:20:12.876Z,18.57
2023-03-26T07:22:39.677Z,18.50
2023-03-26T07:25:06.530Z,18.62
2023-03-26T07:27:51.141Z,18.67
2023-03-26T07:30:31.515Z,18.56
2023-03-26T07:33:00.835Z,18.61
2023-03-26T07:35:46.657Z,18.71
2023-03-26T07:38:28.377Z,18.70
2023-03-26T07:41:32.702Z,18.95
2023-03-26T07:44:01.929Z,19.30
2023-03-26T07:46:33.123Z,18.93
2023-03-26T07:49:00.217Z,19.06
2023-03-26T07:51:27.337Z,19.13
2023-03-26T07:53:54.105Z,19.22
2023-03-26T07:56:26.232Z,18.76
2023-03-26T07:59:23.193Z,19.17
2023-03-26T08:02:16.589Z,18.82
2023-03-26T08:04:54.382Z,19.03
2023-03-26T08:07:49.832Z,19.08
2023-03-26T08:10:23.531Z,19.43
2023-03-26T08:12:52.837Z,19.77
2023-03-26T08:15:28.387Z,19.78
2023-03-26T08:18:13.596Z,19.98
2023-03-26T08:20:48.916Z,19.93
2023-03-26T08:23:21.308Z,20.21
2023-03-26T08:25:57.340Z,20.62
2023-03-26T08:28:34.929Z,20.53
2023-03-26T08:31:01.693Z,20.88
2023-03-26T08:33:28.747Z,20.78
2023-03-26T08:35:55.301Z,20.78
2023-03-26T08:38:22.762Z,20.56
2023-03-26T08:41:10.939Z,20.71
2023-03-26T08:44:04.113Z,21.06
2023-03-26T08:47:09.937Z,21.16
2023-03-26T08:50:00.941Z,21.54
2023-03-26T08:52:45.790Z,20.57
2023-03-26T08:55:12.226Z,21.08
2023-03-26T08:57:59.998Z,21.09
2023-03-26T09:00:56.418Z,21.12
2023-03-26T09:03:50.770Z,20.80
2023-03-26T09:06:38.685Z,21.15
2023-03-26T09:09:22.133Z,21.44
2023-03-26T09:12:09.931Z,21.28
2023-03-26T09:14:57.784Z,21.68
2023-03-26T09:17:43.240Z,22.25
2023-03-26T09:20:30.624Z,22.55
2023-03-26T09:23:18.358Z,22.65
2023-03-26T09:25:44.776Z,22.08
2023-03-26T09:28:50.182Z,21.78
2023-03-26T09:31:52.468Z,22.13
2023-03-26T09:34:29.173Z,22.16
2023-03-26T09:37:25.622Z,21.84
2023-03-26T09:40:15.484Z,21.39
2023-03-26T09:43:00.119Z,20.86
2023-03-26T09:45:50.778Z,20.83
2023-03-26T09:48:43.393Z,20.35
2023-03-26T09:51:32.809Z,19.95
2023-03-26T09:54:25.013Z,19.71
2023-03-26T09:56:57.754Z,19.54
2023-03-26T10:00:01.524Z,19.84
2023-03-26T10:02:51.573Z,20.00
2023-03-26T10:05:18.019Z,19.66
2023-03-26T10:08:01.176Z,19.65
2023-03-26T10:10:55.675Z,19.72
2023-03-26T10:13:41.090Z,19.60
2023-03-26T10:16:19.518Z,19.68
2023-03-26T10:19:19.560Z,19.68
2023-03-26T10:21:59.607Z,19.78
2023-03-26T10:24:57.246Z,19.91
2023-03-26T10:27:32.573Z,19.49
2023-03-26T10:30:17.492Z,19.66
2023-03-26T10:32:51.183Z,19.87
2023-03-26T10:35:42.037Z,19.94
2023-03-26T10:38:35.562Z,19.83
2023-03-26T10:41:20.816Z,19.88
2023-03-26T10:44:07.348Z,20.05
2023-03-26T10:46:41.589Z,19.77
2023-03-26T10:49:37.117Z,19.78
2023-03-26T10:52:06.595Z,20.12
2023-03-26T10:54:53.355Z,20.12
2023-03-26T10:57:41.373Z,20.49
2023-03-26T11:00:18.071Z,20.54
2023-03-26T11:03:03.374Z,21.20
2023-03-26T11:05:51.464Z,21.56
2023-03-26T11:08:31.976Z,22.09
2023-03-26T11:11:19.393Z,21.98
2023-03-26T11:13:45.862Z,21.53
2023-03-26T11:16:34.038Z,21.98
2023-03-26T11:19:22.002Z,21.91
2023-03-26T11:22:20.472Z,21.90
2023-03-26T11:25:00.875Z,21.96
2023-03-26T11:27:52.766Z,22.15
2023-03-26T11:30:28.360Z,22.10
2023-03-26T11:33:00.212Z,22.40
2023-03-26T11:35:39.591Z,22.42
2023-03-26T11:38:17.167Z,22.16
2023-03-26T11:40:46.025Z,21.73
2023-03-26T11:43:14.737Z,21.20
2023-03-26T11:45:46.449Z,21.06
2023-03-26T11:48:24.721Z,21.19
2023-03-26T11:50:58.359Z,21.60
2023-03-26T11:53:29.442Z,21.61
2023-03-26T11:56:04.207Z,21.77
2023-03-26T11:58:54.501Z,21.74
2023-03-26T12:01:49.170Z,21.87
2023-03-26T12:04:18.334Z,21.91
2023-03-26T12:07:06.662Z,21.96
2023-03-26T12:09:33.166Z,21.86
2023-03-26T12:12:00.604Z,22.02
2023-03-26T12:14:29.957Z,21.86
2023-03-26T12:17:07.004Z,22.06
2023-03-26T12:19:42.487Z,22.33
2023-03-26T12:22:37.502Z,22.55
2023-03-26T12:25:25.327Z,22.94
2023-03-26T12:27:57.491Z,22.56
2023-03-26T12:30:26.877Z,22.56
2023-03-26T12:32:58.957Z,22.20
2023-03-26T12:35:27.946Z,22.43
2023-03-26T12:37:56.709Z,22.57
2023-03-26T12:40:29.372Z,22.80
2023-03-26T12:44:49.470Z,22.79
2023-03-26T12:46:03.728Z,22.93
2023-03-26T12:48:41.640Z,22.74
2023-03-26T12:51:19.354Z,22.58
2023-03-26T12:54:06.512Z,22.73
2023-03-26T12:56:42.761Z,22.66
2023-03-26T12:59:21.125Z,23.06
2023-03-26T13:01:52.722Z,23.11
2023-03-26T13:04:36.330Z,22.85
2023-03-26T13:07:21.660Z,22.97
2023-03-26T13:09:52.834Z,22.86
2023-03-26T13:13:04.982Z,22.69
2023-03-26T13:15:38.847Z,22.99
2023-03-26T13:18:13.227Z,23.06
2023-03-26T13:20:54.711Z,22.92
2023-03-26T13:23:27.317Z,22.76
2023-03-26T13:26:23.059Z,22.77
2023-03-26T13:29:22.149Z,22.62
2023-03-26T13:32:03.753Z,22.44
2023-03-26T13:35:12.278Z,22.69
2023-03-26T13:37:54.189Z,22.49
2023-03-26T13:40:42.497Z,22.35
2023-03-26T13:43:30.875Z,22.57
2023-03-26T13:46:18.505Z,22.32
2023-03-26T13:48:57.567Z,22.72
2023-03-26T13:51:27.198Z,22.80
2023-03-26T13:54:22.528Z,22.78
2023-03-26T13:57:06.297Z,22.64
2023-03-26T13:59:40.710Z,22.81
2023-03-26T14:02:23.161Z,22.67
2023-03-26T14:04:56.587Z,22.85
2023-03-26T14:07:27.260Z,23.01
2023-03-26T14:10:01.651Z,22.79
2023-03-26T14:12:34.111Z,22.61
2023-03-26T14:15:05.152Z,22.56
2023-03-26T14:17:55.413Z,22.37
2023-03-26T14:20:43.493Z,22.24
2023-03-26T14:23:22.173Z,22.33
2023-03-26T14:26:04.236Z,22.16
2023-03-26T14:28:51.600Z,22.14
2023-03-26T14:31:35.734Z,21.94
2023-03-26T14:34:22.263Z,21.86
2023-03-26T14:37:13.122Z,21.75
2023-03-26T14:39:48.619Z,21.51
2023-03-26T14:42:36.140Z,21.16
2023-03-26T14:45:27.601Z,21.28
2023-03-26T14:48:31.584Z,21.36
2023-03-26T14:51:17.521Z,21.48
2023-03-26T14:53:52.337Z,21.48
2023-03-26T14:56:24.543Z,21.60
2023-03-26T14:59:06.165Z,21.17
2023-03-26T15:01:56.104Z,20.89
2023-03-26T15:04:41.188Z,20.85
2023-03-26T15:07:48.921Z,20.86
2023-03-26T15:10:43.014Z,20.94
2023-03-26T15:13:33.786Z,20.92
2023-03-26T15:16:45.040Z,20.43
2023-03-26T15:20:00.546Z,19.78
2023-03-26T15:22:45.633Z,19.77
2023-03-26T15:25:14.834Z,19.62
2023-03-26T15:28:05.411Z,19.44
2023-03-26T15:30:34.976Z,19.33
2023-03-26T15:33:25.912Z,19.46
2023-03-26T15:36:11.191Z,19.37
2023-03-26T15:39:02.324Z,19.12
2023-03-26T16:10:32.536Z,18.34
2023-03-26T16:13:17.392Z,18.25
2023-03-26T16:15:53.227Z,18.14
2023-03-26T16:18:28.411Z,18.01
2023-03-26T16:21:03.347Z,17.88
2023-03-26T16:23:55.058Z,17.72
2023-03-26T16:26:54.531Z,17.58
2023-03-26T16:29:23.196Z,17.49
2023-03-26T16:32:08.324Z,17.35
2023-03-26T16:34:52.911Z,17.22
2023-03-26T16:37:42.393Z,17.02
2023-03-26T16:40:17.719Z,16.85
2023-03-26T16:43:18.016Z,16.69
2023-03-26T16:45:50.345Z,16.54
2023-03-26T16:48:29.493Z,16.38
2023-03-26T16:51:14.268Z,16.24
2023-03-26T16:54:00.554Z,15.98
2023-03-26T16:56:50.147Z,15.79
2023-03-26T17:00:07.846Z,15.72
2023-03-26T17:02:40.852Z,15.63
2023-03-26T17:05:32.487Z,15.48
2023-03-26T17:08:14.710Z,15.23
2023-03-26T17:11:00.342Z,15.01
2023-03-26T17:14:00.178Z,14.75
2023-03-26T17:16:34.149Z,14.70
2023-03-26T17:19:19.027Z,14.64
2023-03-26T17:22:16.603Z,14.60
2023-03-26T17:25:14.524Z,14.51
2023-03-26T17:27:51.614Z,14.15
2023-03-26T17:30:30.241Z,14.14
2023-03-26T17:33:02.470Z,14.15
2023-03-26T17:35:47.715Z,14.10
2023-03-26T17:38:16.895Z,13.94
2023-03-26T17:40:58.421Z,13.86
2023-03-26T17:43:48.810Z,13.69
2023-03-26T17:46:47.116Z,13.64
2023-03-26T17:49:22.131Z,13.55
2023-03-26T17:51:58.165Z,13.40
2023-03-26T17:54:38.975Z,13.12
2023-03-26T17:57:29.951Z,13.11
2023-03-26T17:59:58.752Z,12.97
2023-03-26T18:02:36.945Z,12.99
2023-03-26T18:05:07.991Z,12.87
2023-03-26T18:07:55.545Z,12.68
2023-03-26T18:10:52.380Z,12.64
2023-03-26T18:13:31.225Z,12.57
2023-03-26T18:16:13.994Z,12.49
2023-03-26T18:19:04.617Z,12.46
2023-03-26T18:21:39.498Z,12.44
2023-03-26T18:24:08.361Z,12.25
2023-03-26T18:26:41.334Z,12.12
2023-03-26T18:29:19.771Z,12.11
2023-03-26T18:31:49.269Z,12.07
2023-03-26T18:34:17.149Z,11.88
2023-03-26T18:36:43.659Z,11.56
2023-03-26T18:39:13.083Z,11.32
2023-03-26T18:41:42.159Z,11.35
2023-03-26T18:44:16.037Z,11.40
2023-03-26T18:46:43.070Z,11.29
2023-03-26T18:49:15.581Z,11.14
2023-03-26T18:51:56.161Z,11.13
2023-03-26T18:54:24.950Z,11.29
2023-03-26T18:56:51.455Z,11.35
2023-03-26T18:59:31.176Z,11.30
2023-03-26T19:02:10.515Z,11.34
2023-03-26T19:04:37.932Z,11.38
2023-03-26T19:07:09.072Z,11.31
2023-03-26T19:09:35.959Z,11.16
2023-03-26T19:12:21.208Z,11.06
2023-03-26T19:15:04.565Z,10.88
2023-03-26T19:17:40.588Z,10.84
2023-03-26T19:20:15.373Z,10.80
2023-03-26T19:22:42.448Z,10.72
2023-03-26T19:25:19.220Z,10.66
2023-03-26T19:27:45.796Z,10.53
2023-03-26T19:30:20.959Z,10.40
2023-03-26T19:32:53.680Z,10.31
2023-03-26T19:35:22.433Z,10.11
2023-03-26T19:37:50.735Z,10.03
2023-03-26T19:40:23.058Z,9.94
2023-03-26T19:42:49.618Z,9.97
2023-03-26T19:45:19.733Z,10.03
2023-03-26T19:47:54.323Z,10.00
2023-03-26T19:50:30.000Z,10.08
2023-03-26T19:53:16.113Z,10.00
2023-03-26T19:55:53.672Z,9.97
2023-03-26T19:58:20.244Z,9.96
2023-03-26T20:00:46.846Z,9.94
2023-03-26T20:03:14.520Z,9.83
2023-03-26T20:05:41.150Z,9.79
2023-03-26T20:08:15.712Z,9.80
2023-03-26T20:10:42.917Z,9.77
2023-03-26T20:13:13.588Z,9.73
2023-03-26T20:15:40.804Z,9.72
2023-03-26T20:18:07.335Z,9.71
2023-03-26T20:20:34.010Z,9.62
2023-03-26T20:23:00.503Z,9.49
2023-03-26T20:25:32.320Z,9.44
2023-03-26T20:27:58.920Z,9.39
2023-03-26T20:33:12.888Z,9.62
2023-03-26T20:35:40.216Z,9.64
2023-03-26T20:38:06.773Z,9.67
2023-03-26T20:40:33.258Z,9.68
2023-03-26T20:42:59.708Z,9.72
2023-03-26T20:45:26.171Z,9.74
2023-03-26T20:47:52.629Z,9.76
2023-03-26T20:50:21.703Z,9.77
2023-03-26T20:52:49.624Z,9.79
2023-03-26T20:55:18.742Z,9.77
2023-03-26T20:57:45.211Z,9.74
2023-03-26T21:00:12.787Z,9.77
2023-03-26T21:02:41.866Z,9.76
2023-03-26T21:05:11.060Z,9.75
2023-03-26T21:07:37.730Z,9.66
2023-03-26T21:10:04.740Z,9.60
2023-03-26T21:12:34.668Z,9.38
2023-03-26T21:15:03.293Z,9.24
2023-03-26T21:17:31.855Z,9.24
2023-03-26T21:19:58.574Z,9.28
2023-03-26T21:22:37.271Z,9.23
2023-03-26T21:25:23.956Z,9.26
2023-03-26T21:28:15.269Z,9.01
2023-03-26T21:30:41.986Z,9.07
2023-03-26T21:33:08.530Z,9.08
2023-03-26T21:35:35.500Z,8.89
2023-03-26T21:38:04.153Z,8.83
2023-03-26T21:40:30.903Z,8.84
2023-03-26T21:42:57.830Z,8.89
2023-03-26T21:45:24.632Z,8.78
2023-03-26T21:47:51.469Z,8.71
2023-03-26T21:50:20.532Z,8.72
2023-03-26T21:52:47.618Z,8.68
2023-03-26T21:55:14.723Z,8.66
2023-03-26T21:57:47.280Z,8.56
2023-03-26T22:00:17.198Z,8.47
2023-03-26T22:03:25.069Z,8.40
2023-03-26T22:05:59.443Z,8.38
2023-03-26T22:08:40.766Z,8.29
2023-03-26T22:11:10.078Z,8.20
2023-03-26T22:13:36.966Z,8.09
2023-03-26T22:16:03.760Z,7.96
2023-03-26T22:18:30.389Z,7.98
2023-03-26T22:20:57.706Z,8.02
2023-03-26T22:23:24.360Z,7.95
2023-03-26T22:25:50.817Z,7.98
2023-03-26T22:28:17.424Z,7.94
2023-03-26T22:30:44.004Z,7.97
2023-03-26T22:33:10.913Z,7.80
2023-03-26T22:35:38.617Z,7.75
2023-03-26T22:38:05.488Z,7.69
2023-03-26T22:40:31.905Z,7.67
2023-03-26T22:42:58.352Z,7.72
2023-03-26T22:45:24.859Z,7.72
2023-03-26T22:47:51.435Z,7.58
2023-03-26T22:50:29.710Z,7.47
2023-03-26T22:52:56.240Z,7.44
2023-03-26T22:55:28.783Z,7.37
2023-03-26T22:57:56.105Z,7.36
2023-03-26T23:00:22.704Z,7.28
2023-03-26T23:02:49.282Z,7.32
2023-03-26T23:05:16.380Z,7.22
2023-03-26T23:07:43.147Z,7.00
2023-03-26T23:10:10.705Z,6.98
2023-03-26T23:12:38.325Z,7.07
2023-03-26T23:15:06.149Z,7.11
2023-03-26T23:17:34.337Z,6.99
2023-03-26T23:20:02.458Z,7.06
2023-03-26T23:22:28.923Z,7.03
2023-03-26T23:24:55.358Z,7.06
2023-03-26T23:27:22.738Z,7.03
2023-03-26T23:29:49.212Z,6.96
2023-03-26T23:32:24.062Z,6.89
2023-03-26T23:34:51.927Z,6.81
2023-03-26T23:37:19.065Z,6.78
2023-03-26T23:39:45.516Z,6.78
2023-03-26T23:42:11.966Z,6.76
2023-03-26T23:44:38.406Z,6.72
2023-03-26T23:47:05.011Z,6.73
2023-03-26T23:49:31.460Z,6.59
2023-03-26T23:51:57.907Z,6.46
2023-03-26T23:54:24.366Z,6.35
2023-03-26T23:56:50.870Z,6.41
2023-03-26T23:59:17.395Z,6.47
